sensor_id;sensor_type;location;lat;lon;timestamp;P1;durP1;ratioP1;P2;durP2;ratioP2
46731;SDS011;32477;51.474;5.696;2023-10-08T00:00:13;15.07;;;4.35;;
46731;SDS011;32477;51.474;5.696;2023-10-08T00:02:57;14.80;;;5.00;;
46731;SDS011;32477;51.474;5.696;2023-10-08T00:05:23;9.07;;;4.93;;
46731;SDS011;32477;51.474;5.696;2023-10-08T00:07:48;9.98;;;4.43;;
46731;SDS011;32477;51.474;5.696;2023-10-08T00:10:15;14.43;;;5.18;;
46731;SDS011;32477;51.474;5.696;2023-10-08T00:12:41;12.07;;;5.05;;
46731;SDS011;32477;51.474;5.696;2023-10-08T00:15:09;15.30;;;4.45;;
46731;SDS011;32477;51.474;5.696;2023-10-08T00:17:35;12.45;;;4.32;;
46731;SDS011;32477;51.474;5.696;2023-10-08T00:20:01;11.50;;;4.93;;
46731;SDS011;32477;51.474;5.696;2023-10-08T00:22:28;10.02;;;4.68;;
46731;SDS011;32477;51.474;5.696;2023-10-08T00:25:00;11.13;;;4.90;;
46731;SDS011;32477;51.474;5.696;2023-10-08T00:27:26;15.65;;;4.88;;
46731;SDS011;32477;51.474;5.696;2023-10-08T00:29:52;11.93;;;5.03;;
46731;SDS011;32477;51.474;5.696;2023-10-08T00:32:18;14.73;;;5.70;;
46731;SDS011;32477;51.474;5.696;2023-10-08T00:34:43;12.55;;;5.18;;
46731;SDS011;32477;51.474;5.696;2023-10-08T00:37:10;11.45;;;4.57;;
46731;SDS011;32477;51.474;5.696;2023-10-08T00:39:39;14.25;;;5.07;;
46731;SDS011;32477;51.474;5.696;2023-10-08T00:42:05;13.80;;;5.80;;
46731;SDS011;32477;51.474;5.696;2023-10-08T00:44:32;10.82;;;5.35;;
46731;SDS011;32477;51.474;5.696;2023-10-08T00:47:03;17.00;;;5.35;;
46731;SDS011;32477;51.474;5.696;2023-10-08T00:49:31;13.55;;;5.60;;
46731;SDS011;32477;51.474;5.696;2023-10-08T00:52:03;11.93;;;5.57;;
46731;SDS011;32477;51.474;5.696;2023-10-08T00:54:49;14.68;;;5.43;;
46731;SDS011;32477;51.474;5.696;2023-10-08T00:57:21;14.95;;;4.97;;
46731;SDS011;32477;51.474;5.696;2023-10-08T00:59:50;13.32;;;5.50;;
46731;SDS011;32477;51.474;5.696;2023-10-08T01:02:20;10.95;;;4.90;;
46731;SDS011;32477;51.474;5.696;2023-10-08T01:04:56;22.42;;;5.40;;
46731;SDS011;32477;51.474;5.696;2023-10-08T01:07:22;16.23;;;5.18;;
46731;SDS011;32477;51.474;5.696;2023-10-08T01:09:50;14.98;;;4.38;;
46731;SDS011;32477;51.474;5.696;2023-10-08T01:14:51;11.43;;;5.18;;
46731;SDS011;32477;51.474;5.696;2023-10-08T01:17:19;16.90;;;5.22;;
46731;SDS011;32477;51.474;5.696;2023-10-08T01:19:49;12.43;;;5.05;;
46731;SDS011;32477;51.474;5.696;2023-10-08T01:22:22;10.40;;;4.72;;
46731;SDS011;32477;51.474;5.696;2023-10-08T01:24:50;19.60;;;5.28;;
46731;SDS011;32477;51.474;5.696;2023-10-08T01:27:19;11.98;;;4.95;;
46731;SDS011;32477;51.474;5.696;2023-10-08T01:29:49;9.20;;;5.15;;
46731;SDS011;32477;51.474;5.696;2023-10-08T01:32:19;13.02;;;4.90;;
46731;SDS011;32477;51.474;5.696;2023-10-08T01:34:47;15.02;;;5.72;;
46731;SDS011;32477;51.474;5.696;2023-10-08T01:37:13;11.18;;;4.97;;
46731;SDS011;32477;51.474;5.696;2023-10-08T01:39:46;10.40;;;4.40;;
46731;SDS011;32477;51.474;5.696;2023-10-08T01:42:14;13.75;;;5.00;;
46731;SDS011;32477;51.474;5.696;2023-10-08T01:44:44;16.67;;;5.28;;
46731;SDS011;32477;51.474;5.696;2023-10-08T01:47:14;13.35;;;5.93;;
46731;SDS011;32477;51.474;5.696;2023-10-08T01:49:41;10.07;;;5.05;;
46731;SDS011;32477;51.474;5.696;2023-10-08T01:52:09;14.95;;;5.38;;
46731;SDS011;32477;51.474;5.696;2023-10-08T01:54:42;15.55;;;4.82;;
46731;SDS011;32477;51.474;5.696;2023-10-08T01:57:09;12.40;;;5.25;;
46731;SDS011;32477;51.474;5.696;2023-10-08T01:59:35;14.07;;;5.22;;
46731;SDS011;32477;51.474;5.696;2023-10-08T02:02:02;11.30;;;4.82;;
46731;SDS011;32477;51.474;5.696;2023-10-08T02:04:31;15.85;;;4.80;;
46731;SDS011;32477;51.474;5.696;2023-10-08T02:07:00;11.07;;;4.82;;
46731;SDS011;32477;51.474;5.696;2023-10-08T02:09:29;13.85;;;4.95;;
46731;SDS011;32477;51.474;5.696;2023-10-08T02:11:55;15.23;;;4.68;;
46731;SDS011;32477;51.474;5.696;2023-10-08T02:14:22;12.48;;;5.05;;
46731;SDS011;32477;51.474;5.696;2023-10-08T02:16:48;11.55;;;4.72;;
46731;SDS011;32477;51.474;5.696;2023-10-08T02:19:15;13.75;;;5.32;;
46731;SDS011;32477;51.474;5.696;2023-10-08T02:21:46;11.45;;;4.53;;
46731;SDS011;32477;51.474;5.696;2023-10-08T02:24:12;16.25;;;5.07;;
46731;SDS011;32477;51.474;5.696;2023-10-08T02:26:40;12.50;;;4.55;;
46731;SDS011;32477;51.474;5.696;2023-10-08T02:29:08;11.45;;;4.93;;
46731;SDS011;32477;51.474;5.696;2023-10-08T02:31:40;11.27;;;4.53;;
46731;SDS011;32477;51.474;5.696;2023-10-08T02:34:06;13.85;;;4.78;;
46731;SDS011;32477;51.474;5.696;2023-10-08T02:36:37;14.50;;;4.22;;
46731;SDS011;32477;51.474;5.696;2023-10-08T02:39:03;14.60;;;4.50;;
46731;SDS011;32477;51.474;5.696;2023-10-08T02:41:31;14.20;;;4.82;;
46731;SDS011;32477;51.474;5.696;2023-10-08T02:43:57;12.65;;;4.43;;
46731;SDS011;32477;51.474;5.696;2023-10-08T02:46:24;10.32;;;4.65;;
46731;SDS011;32477;51.474;5.696;2023-10-08T02:48:52;12.68;;;4.43;;
46731;SDS011;32477;51.474;5.696;2023-10-08T02:51:18;14.57;;;4.90;;
46731;SDS011;32477;51.474;5.696;2023-10-08T02:53:46;13.10;;;4.68;;
46731;SDS011;32477;51.474;5.696;2023-10-08T02:56:11;18.02;;;5.15;;
46731;SDS011;32477;51.474;5.696;2023-10-08T02:58:40;16.63;;;4.72;;
46731;SDS011;32477;51.474;5.696;2023-10-08T03:01:08;9.57;;;4.68;;
46731;SDS011;32477;51.474;5.696;2023-10-08T03:03:38;12.82;;;4.85;;
46731;SDS011;32477;51.474;5.696;2023-10-08T03:06:07;13.10;;;4.60;;
46731;SDS011;32477;51.474;5.696;2023-10-08T03:08:40;10.30;;;4.13;;
46731;SDS011;32477;51.474;5.696;2023-10-08T03:11:08;11.48;;;4.80;;
46731;SDS011;32477;51.474;5.696;2023-10-08T03:13:43;14.48;;;5.13;;
46731;SDS011;32477;51.474;5.696;2023-10-08T03:16:12;8.48;;;4.25;;
46731;SDS011;32477;51.474;5.696;2023-10-08T03:18:38;14.13;;;4.35;;
46731;SDS011;32477;51.474;5.696;2023-10-08T03:21:10;11.85;;;4.97;;
46731;SDS011;32477;51.474;5.696;2023-10-08T03:23:59;17.08;;;4.28;;
46731;SDS011;32477;51.474;5.696;2023-10-08T03:26:31;10.82;;;4.03;;
46731;SDS011;32477;51.474;5.696;2023-10-08T03:29:01;11.75;;;4.80;;
46731;SDS011;32477;51.474;5.696;2023-10-08T03:31:40;13.20;;;4.57;;
46731;SDS011;32477;51.474;5.696;2023-10-08T03:34:12;12.18;;;4.55;;
46731;SDS011;32477;51.474;5.696;2023-10-08T03:36:39;12.00;;;4.43;;
46731;SDS011;32477;51.474;5.696;2023-10-08T03:39:09;8.70;;;3.85;;
46731;SDS011;32477;51.474;5.696;2023-10-08T03:41:44;10.45;;;3.85;;
46731;SDS011;32477;51.474;5.696;2023-10-08T03:44:31;12.18;;;4.45;;
46731;SDS011;32477;51.474;5.696;2023-10-08T03:46:56;16.63;;;4.80;;
46731;SDS011;32477;51.474;5.696;2023-10-08T03:49:22;11.75;;;4.95;;
46731;SDS011;32477;51.474;5.696;2023-10-08T03:51:48;13.07;;;4.60;;
46731;SDS011;32477;51.474;5.696;2023-10-08T03:54:18;14.80;;;4.82;;
46731;SDS011;32477;51.474;5.696;2023-10-08T03:56:46;14.07;;;4.55;;
46731;SDS011;32477;51.474;5.696;2023-10-08T03:59:17;13.40;;;4.10;;
46731;SDS011;32477;51.474;5.696;2023-10-08T04:01:46;11.75;;;4.53;;
46731;SDS011;32477;51.474;5.696;2023-10-08T04:04:14;15.90;;;4.95;;
46731;SDS011;32477;51.474;5.696;2023-10-08T04:06:40;11.15;;;4.38;;
46731;SDS011;32477;51.474;5.696;2023-10-08T04:09:14;9.23;;;3.97;;
46731;SDS011;32477;51.474;5.696;2023-10-08T04:11:49;13.20;;;4.75;;
46731;SDS011;32477;51.474;5.696;2023-10-08T04:14:17;15.38;;;5.45;;
46731;SDS011;32477;51.474;5.696;2023-10-08T04:16:47;8.10;;;4.57;;
46731;SDS011;32477;51.474;5.696;2023-10-08T04:19:16;13.63;;;4.45;;
46731;SDS011;32477;51.474;5.696;2023-10-08T04:21:50;9.77;;;4.35;;
46731;SDS011;32477;51.474;5.696;2023-10-08T04:24:22;10.05;;;4.32;;
46731;SDS011;32477;51.474;5.696;2023-10-08T04:27:02;12.63;;;5.07;;
46731;SDS011;32477;51.474;5.696;2023-10-08T04:29:30;13.55;;;4.85;;
46731;SDS011;32477;51.474;5.696;2023-10-08T04:31:58;12.65;;;4.95;;
46731;SDS011;32477;51.474;5.696;2023-10-08T04:34:33;17.88;;;4.55;;
46731;SDS011;32477;51.474;5.696;2023-10-08T04:36:59;10.07;;;4.15;;
46731;SDS011;32477;51.474;5.696;2023-10-08T04:39:29;14.95;;;5.13;;
46731;SDS011;32477;51.474;5.696;2023-10-08T04:42:01;10.77;;;4.57;;
46731;SDS011;32477;51.474;5.696;2023-10-08T04:44:38;9.25;;;4.72;;
46731;SDS011;32477;51.474;5.696;2023-10-08T04:47:05;12.25;;;4.47;;
46731;SDS011;32477;51.474;5.696;2023-10-08T04:49:32;9.85;;;4.60;;
46731;SDS011;32477;51.474;5.696;2023-10-08T04:52:01;13.43;;;4.97;;
46731;SDS011;32477;51.474;5.696;2023-10-08T04:54:38;15.55;;;5.28;;
46731;SDS011;32477;51.474;5.696;2023-10-08T04:57:06;10.25;;;4.75;;
46731;SDS011;32477;51.474;5.696;2023-10-08T05:02:09;12.65;;;5.15;;
46731;SDS011;32477;51.474;5.696;2023-10-08T05:04:53;12.20;;;5.07;;
46731;SDS011;32477;51.474;5.696;2023-10-08T05:07:37;9.50;;;4.15;;
46731;SDS011;32477;51.474;5.696;2023-10-08T05:10:12;10.30;;;4.75;;
46731;SDS011;32477;51.474;5.696;2023-10-08T05:12:51;15.35;;;5.28;;
46731;SDS011;32477;51.474;5.696;2023-10-08T05:15:40;11.77;;;4.70;;
46731;SDS011;32477;51.474;5.696;2023-10-08T05:18:07;14.35;;;5.18;;
46731;SDS011;32477;51.474;5.696;2023-10-08T05:20:42;7.93;;;4.65;;
46731;SDS011;32477;51.474;5.696;2023-10-08T05:23:14;12.07;;;4.38;;
46731;SDS011;32477;51.474;5.696;2023-10-08T05:25:50;14.50;;;4.93;;
46731;SDS011;32477;51.474;5.696;2023-10-08T05:28:26;11.05;;;5.20;;
46731;SDS011;32477;51.474;5.696;2023-10-08T05:30:54;17.25;;;4.88;;
46731;SDS011;32477;51.474;5.696;2023-10-08T05:33:36;10.63;;;4.72;;
46731;SDS011;32477;51.474;5.696;2023-10-08T05:36:24;14.90;;;4.63;;
46731;SDS011;32477;51.474;5.696;2023-10-08T05:38:59;11.98;;;4.75;;
46731;SDS011;32477;51.474;5.696;2023-10-08T05:41:43;11.48;;;5.32;;
46731;SDS011;32477;51.474;5.696;2023-10-08T05:44:30;14.85;;;6.07;;
46731;SDS011;32477;51.474;5.696;2023-10-08T05:47:05;9.32;;;5.22;;
46731;SDS011;32477;51.474;5.696;2023-10-08T05:49:37;18.17;;;5.68;;
46731;SDS011;32477;51.474;5.696;2023-10-08T05:52:17;14.48;;;5.90;;
46731;SDS011;32477;51.474;5.696;2023-10-08T05:55:06;13.50;;;5.35;;
46731;SDS011;32477;51.474;5.696;2023-10-08T05:57:38;17.52;;;6.93;;
46731;SDS011;32477;51.474;5.696;2023-10-08T06:00:04;12.75;;;5.47;;
46731;SDS011;32477;51.474;5.696;2023-10-08T06:02:31;15.95;;;4.50;;
46731;SDS011;32477;51.474;5.696;2023-10-08T06:05:06;13.43;;;5.05;;
46731;SDS011;32477;51.474;5.696;2023-10-08T06:10:28;10.55;;;4.40;;
46731;SDS011;32477;51.474;5.696;2023-10-08T06:12:54;14.80;;;4.90;;
46731;SDS011;32477;51.474;5.696;2023-10-08T06:15:27;14.02;;;5.28;;
46731;SDS011;32477;51.474;5.696;2023-10-08T06:18:09;17.60;;;5.38;;
46731;SDS011;32477;51.474;5.696;2023-10-08T06:20:36;8.55;;;4.45;;
46731;SDS011;32477;51.474;5.696;2023-10-08T06:23:04;15.57;;;5.35;;
46731;SDS011;32477;51.474;5.696;2023-10-08T06:25:32;15.18;;;5.32;;
46731;SDS011;32477;51.474;5.696;2023-10-08T06:28:09;11.93;;;5.32;;
46731;SDS011;32477;51.474;5.696;2023-10-08T06:30:40;11.75;;;5.18;;
46731;SDS011;32477;51.474;5.696;2023-10-08T06:33:06;14.20;;;5.30;;
46731;SDS011;32477;51.474;5.696;2023-10-08T06:35:33;11.15;;;4.55;;
46731;SDS011;32477;51.474;5.696;2023-10-08T06:37:58;14.00;;;5.00;;
46731;SDS011;32477;51.474;5.696;2023-10-08T06:40:26;14.20;;;5.40;;
46731;SDS011;32477;51.474;5.696;2023-10-08T06:43:07;10.48;;;5.32;;
46731;SDS011;32477;51.474;5.696;2023-10-08T06:45:58;10.63;;;5.30;;
46731;SDS011;32477;51.474;5.696;2023-10-08T06:48:24;13.05;;;5.50;;
46731;SDS011;32477;51.474;5.696;2023-10-08T06:50:50;12.40;;;5.93;;
46731;SDS011;32477;51.474;5.696;2023-10-08T06:53:24;18.38;;;6.07;;
46731;SDS011;32477;51.474;5.696;2023-10-08T06:55:50;11.15;;;5.60;;
46731;SDS011;32477;51.474;5.696;2023-10-08T06:58:22;14.48;;;5.55;;
46731;SDS011;32477;51.474;5.696;2023-10-08T07:00:49;17.85;;;6.43;;
46731;SDS011;32477;51.474;5.696;2023-10-08T07:03:14;16.52;;;5.53;;
46731;SDS011;32477;51.474;5.696;2023-10-08T07:05:43;15.95;;;6.18;;
46731;SDS011;32477;51.474;5.696;2023-10-08T07:08:27;13.57;;;5.70;;
46731;SDS011;32477;51.474;5.696;2023-10-08T07:10:57;10.82;;;5.35;;
46731;SDS011;32477;51.474;5.696;2023-10-08T07:13:25;16.65;;;6.05;;
46731;SDS011;32477;51.474;5.696;2023-10-08T07:15:54;12.98;;;5.38;;
46731;SDS011;32477;51.474;5.696;2023-10-08T07:18:20;14.57;;;5.68;;
46731;SDS011;32477;51.474;5.696;2023-10-08T07:20:56;18.05;;;6.38;;
46731;SDS011;32477;51.474;5.696;2023-10-08T07:23:26;15.73;;;5.95;;
46731;SDS011;32477;51.474;5.696;2023-10-08T07:25:59;14.70;;;5.93;;
46731;SDS011;32477;51.474;5.696;2023-10-08T07:28:43;20.83;;;6.75;;
46731;SDS011;32477;51.474;5.696;2023-10-08T07:31:18;18.35;;;6.18;;
46731;SDS011;32477;51.474;5.696;2023-10-08T07:33:53;39.20;;;17.23;;
46731;SDS011;32477;51.474;5.696;2023-10-08T07:36:40;18.02;;;7.38;;
46731;SDS011;32477;51.474;5.696;2023-10-08T07:39:16;15.57;;;6.45;;
46731;SDS011;32477;51.474;5.696;2023-10-08T07:41:56;15.68;;;6.13;;
46731;SDS011;32477;51.474;5.696;2023-10-08T07:44:24;12.93;;;6.07;;
46731;SDS011;32477;51.474;5.696;2023-10-08T07:46:52;13.85;;;7.40;;
46731;SDS011;32477;51.474;5.696;2023-10-08T07:49:21;24.90;;;9.35;;
46731;SDS011;32477;51.474;5.696;2023-10-08T07:51:56;14.23;;;6.78;;
46731;SDS011;32477;51.474;5.696;2023-10-08T07:54:24;16.63;;;6.10;;
46731;SDS011;32477;51.474;5.696;2023-10-08T07:56:52;17.77;;;7.20;;
46731;SDS011;32477;51.474;5.696;2023-10-08T07:59:33;20.98;;;7.95;;
46731;SDS011;32477;51.474;5.696;2023-10-08T08:02:03;12.32;;;6.18;;
46731;SDS011;32477;51.474;5.696;2023-10-08T08:04:35;17.92;;;7.30;;
46731;SDS011;32477;51.474;5.696;2023-10-08T08:07:01;34.22;;;7.40;;
46731;SDS011;32477;51.474;5.696;2023-10-08T08:09:29;14.85;;;7.28;;
46731;SDS011;32477;51.474;5.696;2023-10-08T08:11:55;18.10;;;8.65;;
46731;SDS011;32477;51.474;5.696;2023-10-08T08:14:22;20.70;;;8.05;;
46731;SDS011;32477;51.474;5.696;2023-10-08T08:16:49;20.60;;;8.73;;
46731;SDS011;32477;51.474;5.696;2023-10-08T08:19:15;22.08;;;8.98;;
46731;SDS011;32477;51.474;5.696;2023-10-08T08:21:42;20.42;;;8.63;;
46731;SDS011;32477;51.474;5.696;2023-10-08T08:24:10;18.13;;;8.55;;
46731;SDS011;32477;51.474;5.696;2023-10-08T08:26:37;19.85;;;10.07;;
46731;SDS011;32477;51.474;5.696;2023-10-08T08:29:25;22.45;;;9.63;;
46731;SDS011;32477;51.474;5.696;2023-10-08T08:31:52;19.42;;;8.05;;
46731;SDS011;32477;51.474;5.696;2023-10-08T08:34:18;23.80;;;8.63;;
46731;SDS011;32477;51.474;5.696;2023-10-08T08:36:48;22.75;;;9.88;;
46731;SDS011;32477;51.474;5.696;2023-10-08T08:39:15;22.73;;;9.57;;
46731;SDS011;32477;51.474;5.696;2023-10-08T08:42:01;32.65;;;11.32;;
46731;SDS011;32477;51.474;5.696;2023-10-08T08:44:35;37.20;;;11.70;;
46731;SDS011;32477;51.474;5.696;2023-10-08T08:47:09;39.58;;;11.68;;
46731;SDS011;32477;51.474;5.696;2023-10-08T08:49:41;25.38;;;10.45;;
46731;SDS011;32477;51.474;5.696;2023-10-08T08:52:08;38.03;;;12.15;;
46731;SDS011;32477;51.474;5.696;2023-10-08T08:54:34;20.58;;;11.65;;
46731;SDS011;32477;51.474;5.696;2023-10-08T08:57:02;24.77;;;11.80;;
46731;SDS011;32477;51.474;5.696;2023-10-08T08:59:38;22.83;;;10.93;;
46731;SDS011;32477;51.474;5.696;2023-10-08T09:02:36;28.88;;;11.73;;
46731;SDS011;32477;51.474;5.696;2023-10-08T09:05:02;31.33;;;12.18;;
46731;SDS011;32477;51.474;5.696;2023-10-08T09:07:57;32.13;;;12.38;;
46731;SDS011;32477;51.474;5.696;2023-10-08T09:10:29;37.28;;;12.18;;
46731;SDS011;32477;51.474;5.696;2023-10-08T09:13:01;30.58;;;12.90;;
46731;SDS011;32477;51.474;5.696;2023-10-08T09:15:32;28.67;;;13.02;;
46731;SDS011;32477;51.474;5.696;2023-10-08T09:17:58;31.38;;;12.00;;
46731;SDS011;32477;51.474;5.696;2023-10-08T09:20:27;28.75;;;12.35;;
46731;SDS011;32477;51.474;5.696;2023-10-08T09:23:06;29.42;;;14.32;;
46731;SDS011;32477;51.474;5.696;2023-10-08T09:25:33;30.10;;;13.40;;
46731;SDS011;32477;51.474;5.696;2023-10-08T09:27:59;40.97;;;15.52;;
46731;SDS011;32477;51.474;5.696;2023-10-08T09:30:25;33.10;;;16.67;;
46731;SDS011;32477;51.474;5.696;2023-10-08T09:32:54;37.25;;;15.77;;
46731;SDS011;32477;51.474;5.696;2023-10-08T09:35:20;34.03;;;15.32;;
46731;SDS011;32477;51.474;5.696;2023-10-08T09:37:49;36.97;;;15.70;;
46731;SDS011;32477;51.474;5.696;2023-10-08T09:40:15;37.00;;;14.25;;
46731;SDS011;32477;51.474;5.696;2023-10-08T09:42:46;42.17;;;15.95;;
46731;SDS011;32477;51.474;5.696;2023-10-08T09:45:13;39.35;;;15.82;;
46731;SDS011;32477;51.474;5.696;2023-10-08T09:47:38;42.08;;;15.95;;
46731;SDS011;32477;51.474;5.696;2023-10-08T09:50:12;38.13;;;13.68;;
46731;SDS011;32477;51.474;5.696;2023-10-08T09:52:42;37.50;;;13.40;;
46731;SDS011;32477;51.474;5.696;2023-10-08T09:55:15;32.35;;;15.50;;
46731;SDS011;32477;51.474;5.696;2023-10-08T09:57:43;32.33;;;13.70;;
46731;SDS011;32477;51.474;5.696;2023-10-08T10:00:09;27.27;;;13.00;;
46731;SDS011;32477;51.474;5.696;2023-10-08T10:02:42;28.50;;;12.07;;
46731;SDS011;32477;51.474;5.696;2023-10-08T10:05:12;29.30;;;12.00;;
46731;SDS011;32477;51.474;5.696;2023-10-08T10:07:47;26.88;;;12.07;;
46731;SDS011;32477;51.474;5.696;2023-10-08T10:10:29;31.30;;;12.05;;
46731;SDS011;32477;51.474;5.696;2023-10-08T10:12:57;22.27;;;11.10;;
46731;SDS011;32477;51.474;5.696;2023-10-08T10:15:24;24.42;;;11.75;;
46731;SDS011;32477;51.474;5.696;2023-10-08T10:17:50;27.60;;;11.52;;
46731;SDS011;32477;51.474;5.696;2023-10-08T10:20:17;18.02;;;9.98;;
46731;SDS011;32477;51.474;5.696;2023-10-08T10:22:43;20.92;;;12.20;;
46731;SDS011;32477;51.474;5.696;2023-10-08T10:25:09;28.33;;;12.90;;
46731;SDS011;32477;51.474;5.696;2023-10-08T10:27:51;18.83;;;11.50;;
46731;SDS011;32477;51.474;5.696;2023-10-08T10:30:32;26.10;;;12.18;;
46731;SDS011;32477;51.474;5.696;2023-10-08T10:33:02;25.45;;;11.85;;
46731;SDS011;32477;51.474;5.696;2023-10-08T10:35:30;25.20;;;11.63;;
46731;SDS011;32477;51.474;5.696;2023-10-08T10:37:57;26.38;;;11.52;;
46731;SDS011;32477;51.474;5.696;2023-10-08T10:40:28;23.40;;;11.80;;
46731;SDS011;32477;51.474;5.696;2023-10-08T10:42:56;22.55;;;11.02;;
46731;SDS011;32477;51.474;5.696;2023-10-08T10:45:22;28.77;;;11.98;;
46731;SDS011;32477;51.474;5.696;2023-10-08T10:48:08;30.35;;;10.82;;
46731;SDS011;32477;51.474;5.696;2023-10-08T10:50:49;24.15;;;11.95;;
46731;SDS011;32477;51.474;5.696;2023-10-08T10:53:34;24.80;;;11.30;;
46731;SDS011;32477;51.474;5.696;2023-10-08T10:56:17;21.35;;;11.50;;
46731;SDS011;32477;51.474;5.696;2023-10-08T10:58:57;22.88;;;10.65;;
46731;SDS011;32477;51.474;5.696;2023-10-08T11:01:40;23.42;;;11.48;;
46731;SDS011;32477;51.474;5.696;2023-10-08T11:04:17;32.97;;;12.35;;
46731;SDS011;32477;51.474;5.696;2023-10-08T11:06:53;25.60;;;11.43;;
46731;SDS011;32477;51.474;5.696;2023-10-08T11:09:25;26.17;;;11.43;;
46731;SDS011;32477;51.474;5.696;2023-10-08T11:12:01;20.30;;;11.05;;
46731;SDS011;32477;51.474;5.696;2023-10-08T11:14:35;25.48;;;11.70;;
46731;SDS011;32477;51.474;5.696;2023-10-08T11:17:22;25.95;;;10.73;;
46731;SDS011;32477;51.474;5.696;2023-10-08T11:19:49;31.17;;;10.20;;
46731;SDS011;32477;51.474;5.696;2023-10-08T11:22:16;25.20;;;9.70;;
46731;SDS011;32477;51.474;5.696;2023-10-08T11:24:43;21.48;;;10.95;;
46731;SDS011;32477;51.474;5.696;2023-10-08T11:27:19;19.30;;;10.02;;
46731;SDS011;32477;51.474;5.696;2023-10-08T11:29:55;20.63;;;10.43;;
46731;SDS011;32477;51.474;5.696;2023-10-08T11:32:23;21.40;;;9.10;;
46731;SDS011;32477;51.474;5.696;2023-10-08T11:34:55;21.98;;;9.93;;
46731;SDS011;32477;51.474;5.696;2023-10-08T11:37:32;29.63;;;11.13;;
46731;SDS011;32477;51.474;5.696;2023-10-08T11:40:01;29.60;;;11.55;;
46731;SDS011;32477;51.474;5.696;2023-10-08T11:42:42;26.70;;;11.10;;
46731;SDS011;32477;51.474;5.696;2023-10-08T11:45:09;22.98;;;12.00;;
46731;SDS011;32477;51.474;5.696;2023-10-08T11:47:49;21.75;;;11.50;;
46731;SDS011;32477;51.474;5.696;2023-10-08T11:50:26;24.38;;;11.20;;
46731;SDS011;32477;51.474;5.696;2023-10-08T11:53:00;19.75;;;11.27;;
46731;SDS011;32477;51.474;5.696;2023-10-08T11:55:28;23.15;;;11.57;;
46731;SDS011;32477;51.474;5.696;2023-10-08T11:58:01;26.13;;;12.18;;
46731;SDS011;32477;51.474;5.696;2023-10-08T12:00:40;23.13;;;12.57;;
46731;SDS011;32477;51.474;5.696;2023-10-08T12:03:12;27.30;;;13.60;;
46731;SDS011;32477;51.474;5.696;2023-10-08T12:05:43;28.27;;;12.57;;
46731;SDS011;32477;51.474;5.696;2023-10-08T12:08:17;30.90;;;13.52;;
46731;SDS011;32477;51.474;5.696;2023-10-08T12:10:46;24.30;;;12.15;;
46731;SDS011;32477;51.474;5.696;2023-10-08T12:13:13;22.75;;;11.90;;
46731;SDS011;32477;51.474;5.696;2023-10-08T12:15:41;27.00;;;11.90;;
46731;SDS011;32477;51.474;5.696;2023-10-08T12:18:09;22.52;;;11.07;;
46731;SDS011;32477;51.474;5.696;2023-10-08T12:20:41;30.70;;;11.80;;
46731;SDS011;32477;51.474;5.696;2023-10-08T12:23:11;25.40;;;11.65;;
46731;SDS011;32477;51.474;5.696;2023-10-08T12:25:44;18.95;;;11.75;;
46731;SDS011;32477;51.474;5.696;2023-10-08T12:28:16;28.58;;;12.93;;
46731;SDS011;32477;51.474;5.696;2023-10-08T12:30:43;42.25;;;13.15;;
46731;SDS011;32477;51.474;5.696;2023-10-08T12:33:10;32.60;;;14.73;;
46731;SDS011;32477;51.474;5.696;2023-10-08T12:35:41;28.80;;;13.80;;
46731;SDS011;32477;51.474;5.696;2023-10-08T12:38:08;32.95;;;13.40;;
46731;SDS011;32477;51.474;5.696;2023-10-08T12:40:34;27.70;;;12.98;;
46731;SDS011;32477;51.474;5.696;2023-10-08T12:43:16;23.05;;;12.05;;
46731;SDS011;32477;51.474;5.696;2023-10-08T12:45:45;30.90;;;13.50;;
46731;SDS011;32477;51.474;5.696;2023-10-08T12:48:17;24.23;;;12.38;;
46731;SDS011;32477;51.474;5.696;2023-10-08T12:50:43;32.10;;;13.07;;
46731;SDS011;32477;51.474;5.696;2023-10-08T12:53:09;32.10;;;12.90;;
46731;SDS011;32477;51.474;5.696;2023-10-08T12:55:37;24.52;;;11.30;;
46731;SDS011;32477;51.474;5.696;2023-10-08T12:58:04;26.05;;;12.55;;
46731;SDS011;32477;51.474;5.696;2023-10-08T13:00:34;23.02;;;12.40;;
46731;SDS011;32477;51.474;5.696;2023-10-08T13:03:03;28.55;;;12.13;;
46731;SDS011;32477;51.474;5.696;2023-10-08T13:05:30;32.03;;;13.23;;
46731;SDS011;32477;51.474;5.696;2023-10-08T13:07:58;24.33;;;12.85;;
46731;SDS011;32477;51.474;5.696;2023-10-08T13:10:34;22.30;;;11.32;;
46731;SDS011;32477;51.474;5.696;2023-10-08T13:13:00;25.08;;;12.30;;
46731;SDS011;32477;51.474;5.696;2023-10-08T13:15:26;28.55;;;12.35;;
46731;SDS011;32477;51.474;5.696;2023-10-08T13:17:52;32.20;;;12.70;;
46731;SDS011;32477;51.474;5.696;2023-10-08T13:20:17;26.80;;;12.68;;
46731;SDS011;32477;51.474;5.696;2023-10-08T13:22:43;30.65;;;13.55;;
46731;SDS011;32477;51.474;5.696;2023-10-08T13:25:10;27.63;;;12.38;;
46731;SDS011;32477;51.474;5.696;2023-10-08T13:27:37;28.25;;;14.05;;
46731;SDS011;32477;51.474;5.696;2023-10-08T13:30:06;31.95;;;13.65;;
46731;SDS011;32477;51.474;5.696;2023-10-08T13:32:34;38.70;;;14.65;;
46731;SDS011;32477;51.474;5.696;2023-10-08T13:35:05;23.35;;;12.30;;
46731;SDS011;32477;51.474;5.696;2023-10-08T13:37:36;23.27;;;12.63;;
46731;SDS011;32477;51.474;5.696;2023-10-08T13:40:02;30.27;;;12.60;;
46731;SDS011;32477;51.474;5.696;2023-10-08T13:42:28;32.95;;;14.25;;
46731;SDS011;32477;51.474;5.696;2023-10-08T13:44:57;27.77;;;13.00;;
46731;SDS011;32477;51.474;5.696;2023-10-08T13:47:24;29.27;;;14.63;;
46731;SDS011;32477;51.474;5.696;2023-10-08T13:49:51;24.92;;;13.40;;
46731;SDS011;32477;51.474;5.696;2023-10-08T13:52:20;23.27;;;12.95;;
46731;SDS011;32477;51.474;5.696;2023-10-08T13:54:51;33.45;;;13.82;;
46731;SDS011;32477;51.474;5.696;2023-10-08T13:57:20;31.75;;;13.80;;
46731;SDS011;32477;51.474;5.696;2023-10-08T13:59:46;37.78;;;17.00;;
46731;SDS011;32477;51.474;5.696;2023-10-08T14:02:13;33.85;;;14.30;;
46731;SDS011;32477;51.474;5.696;2023-10-08T14:04:44;33.15;;;14.27;;
46731;SDS011;32477;51.474;5.696;2023-10-08T14:07:11;39.60;;;15.88;;
46731;SDS011;32477;51.474;5.696;2023-10-08T14:09:41;32.60;;;15.30;;
46731;SDS011;32477;51.474;5.696;2023-10-08T14:12:13;24.98;;;13.65;;
46731;SDS011;32477;51.474;5.696;2023-10-08T14:14:39;41.92;;;16.33;;
46731;SDS011;32477;51.474;5.696;2023-10-08T14:17:11;32.05;;;15.38;;
46731;SDS011;32477;51.474;5.696;2023-10-08T14:19:41;27.92;;;16.02;;
46731;SDS011;32477;51.474;5.696;2023-10-08T14:22:24;41.83;;;16.70;;
46731;SDS011;32477;51.474;5.696;2023-10-08T14:24:51;38.03;;;17.02;;
46731;SDS011;32477;51.474;5.696;2023-10-08T14:27:27;40.65;;;17.50;;
46731;SDS011;32477;51.474;5.696;2023-10-08T14:30:05;33.55;;;16.33;;
46731;SDS011;32477;51.474;5.696;2023-10-08T14:32:43;43.25;;;17.02;;
46731;SDS011;32477;51.474;5.696;2023-10-08T14:35:11;39.97;;;16.23;;
46731;SDS011;32477;51.474;5.696;2023-10-08T14:37:56;45.72;;;19.00;;
46731;SDS011;32477;51.474;5.696;2023-10-08T14:40:40;45.10;;;20.65;;
46731;SDS011;32477;51.474;5.696;2023-10-08T14:43:24;40.05;;;17.83;;
46731;SDS011;32477;51.474;5.696;2023-10-08T14:45:49;32.95;;;17.05;;
46731;SDS011;32477;51.474;5.696;2023-10-08T14:48:17;46.58;;;17.13;;
46731;SDS011;32477;51.474;5.696;2023-10-08T14:50:43;40.80;;;19.95;;
46731;SDS011;32477;51.474;5.696;2023-10-08T14:53:09;36.72;;;18.40;;
46731;SDS011;32477;51.474;5.696;2023-10-08T14:55:35;42.80;;;20.95;;
46731;SDS011;32477;51.474;5.696;2023-10-08T14:58:01;40.22;;;20.30;;